Time;durP1;ratioP1;P1;durP2;ratioP2;P2;SDS_P1;SDS_P2;PMS_P1;PMS_P2;Temp;Humidity;BMP_temperature;BMP_pressure;BME280_temperature;BME280_humidity;BME280_pressure;Samples;Min_cycle;Max_cycle;Signal;HPM_P1;HPM_P2
2023/07/27 00:00:17;;;;;;;4.70;4.15;;;;;;;18.86;55.83;99290.03;5050448;28;20132;-81
2023/07/27 00:02:44;;;;;;;7.35;5.45;;;;;;;18.86;55.88;99284.69;5054289;28;20119;-80
2023/07/27 00:05:12;;;;;;;6.72;4.78;;;;;;;18.86;55.87;99279.38;5070799;28;20048;-81
2023/07/27 00:07:39;;;;;;;7.80;4.82;;;;;;;18.86;56.02;99268.69;5070642;28;20055;-80
2023/07/27 00:10:06;;;;;;;6.75;4.95;;;;;;;18.86;56.31;99271.38;5070612;28;20048;-80
2023/07/27 00:12:32;;;;;;;8.00;4.97;;;;;;;18.86;56.31;99279.38;5037476;28;20079;-82
2023/07/27 00:14:59;;;;;;;5.82;4.53;;;;;;;18.85;55.61;99274.19;5050373;28;20076;-81
2023/07/27 00:17:25;;;;;;;9.07;4.82;;;;;;;18.83;55.72;99266.34;5050502;28;20049;-80
2023/07/27 00:19:52;;;;;;;7.30;5.07;;;;;;;18.80;55.72;99263.97;5050662;28;20052;-81
2023/07/27 00:22:18;;;;;;;10.57;5.35;;;;;;;18.79;55.80;99262.28;5067875;28;20052;-80
2023/07/27 00:24:45;;;;;;;6.30;4.68;;;;;;;18.75;55.72;99255.59;5070411;28;20055;-81
2023/07/27 00:27:11;;;;;;;6.15;4.63;;;;;;;18.73;55.65;99245.06;5070080;28;20047;-81
2023/07/27 00:29:38;;;;;;;5.13;4.40;;;;;;;18.72;55.77;99245.22;5070270;28;20080;-81
2023/07/27 00:32:05;;;;;;;5.00;4.38;;;;;;;18.70;56.04;99249.88;5057173;28;20051;-81
2023/07/27 00:34:31;;;;;;;6.05;4.95;;;;;;;18.68;55.54;99249.19;5032773;28;20049;-80
2023/07/27 00:36:58;;;;;;;6.82;5.05;;;;;;;18.66;55.98;99245.84;5050019;28;20080;-81
2023/07/27 00:39:24;;;;;;;7.40;5.68;;;;;;;18.63;55.83;99239.00;5050315;28;20076;-82
2023/07/27 00:41:51;;;;;;;8.30;5.15;;;;;;;18.61;56.00;99241.81;5057975;28;20044;-81
2023/07/27 00:44:17;;;;;;;11.15;5.50;;;;;;;18.60;55.85;99228.63;5057322;28;20080;-81
2023/07/27 00:46:44;;;;;;;6.68;5.22;;;;;;;18.58;56.01;99227.97;5064148;28;20049;-82
2023/07/27 00:49:10;;;;;;;6.80;5.32;;;;;;;18.55;55.67;99223.78;5070005;28;20087;-81
2023/07/27 00:51:41;;;;;;;6.78;5.50;;;;;;;18.53;56.05;99217.75;5065997;28;20494;-81
2023/07/27 00:54:09;;;;;;;8.90;5.93;;;;;;;18.52;55.76;99215.22;5050099;28;20051;-80
2023/07/27 00:56:38;;;;;;;8.88;5.22;;;;;;;18.50;56.04;99218.03;5049503;28;20049;-80
2023/07/27 00:59:05;;;;;;;7.80;5.88;;;;;;;18.49;56.04;99211.91;5032385;28;20084;-82
2023/07/27 01:01:32;;;;;;;10.27;5.78;;;;;;;18.48;55.82;99207.56;5048941;28;20092;-83
2023/07/27 01:04:00;;;;;;;8.82;5.95;;;;;;;18.48;56.21;99206.72;5069803;28;20084;-82
2023/07/27 01:06:27;;;;;;;8.73;5.97;;;;;;;18.47;55.78;99203.19;5069872;28;20101;-81
2023/07/27 01:08:54;;;;;;;7.53;5.78;;;;;;;18.47;55.96;99197.88;5069664;28;20106;-80
2023/07/27 01:11:53;;;;;;;7.10;5.47;;;;;;;18.41;56.00;99197.66;5071041;28;20059;-81
2023/07/27 01:14:49;;;;;;;9.98;6.03;;;;;;;18.41;56.46;99189.66;5040380;28;20076;-81
2023/07/27 01:17:26;;;;;;;10.07;5.43;;;;;;;18.46;56.44;99187.34;5073254;28;20669;-82
2023/07/27 01:20:09;;;;;;;9.23;5.80;;;;;;;18.41;56.43;99176.34;5073500;28;20045;-81
2023/07/27 01:22:51;;;;;;;7.88;5.40;;;;;;;18.42;56.35;99167.34;5070396;28;20064;-81
2023/07/27 01:25:36;;;;;;;8.07;6.05;;;;;;;18.41;56.38;99168.34;5035303;28;20061;-80
2023/07/27 01:28:12;;;;;;;7.70;5.55;;;;;;;18.42;56.37;99164.66;5053154;28;20088;-80
2023/07/27 01:31:08;;;;;;;8.30;4.88;;;;;;;18.46;56.27;99166.03;5053342;28;20056;-80
2023/07/27 01:33:40;;;;;;;7.93;4.78;;;;;;;18.46;56.63;99166.88;5057758;28;20076;-80
2023/07/27 01:36:21;;;;;;;9.15;5.40;;;;;;;18.47;55.93;99170.41;5054739;28;20045;-82
2023/07/27 01:38:50;;;;;;;8.07;5.45;;;;;;;18.51;55.92;99158.44;5071753;28;20047;-82
2023/07/27 01:41:18;;;;;;;7.75;5.63;;;;;;;18.52;55.70;99154.78;5073102;28;20139;-80
2023/07/27 01:43:46;;;;;;;10.15;6.25;;;;;;;18.52;55.92;99148.59;5048396;28;20041;-80
2023/07/27 01:46:14;;;;;;;8.20;5.63;;;;;;;18.54;55.83;99147.47;5052728;28;20049;-81
2023/07/27 01:48:42;;;;;;;7.47;5.03;;;;;;;18.55;55.63;99143.81;5052753;28;20048;-81
2023/07/27 01:51:10;;;;;;;6.03;4.70;;;;;;;18.56;55.89;99144.63;5052776;28;20508;-81
2023/07/27 01:53:37;;;;;;;7.32;5.43;;;;;;;18.55;55.69;99133.16;5054594;28;20112;-81
2023/07/27 01:56:06;;;;;;;8.85;6.10;;;;;;;18.56;55.46;99134.81;5072562;28;20056;-81
2023/07/27 01:58:37;;;;;;;7.15;5.35;;;;;;;18.56;55.97;99128.66;5072707;28;20254;-81
2023/07/27 02:01:04;;;;;;;7.85;5.68;;;;;;;18.58;55.37;99124.84;5072935;28;20056;-82
2023/07/27 02:03:31;;;;;;;9.73;5.25;;;;;;;18.59;55.66;99120.34;5072498;28;20040;-81
2023/07/27 02:06:00;;;;;;;6.70;4.93;;;;;;;18.59;55.75;99118.53;5054694;28;20044;-81
2023/07/27 02:08:27;;;;;;;7.75;5.10;;;;;;;18.59;55.33;99110.53;5066840;28;20095;-81
2023/07/27 02:11:04;;;;;;;7.47;4.82;;;;;;;18.55;55.91;99109.19;5034982;28;20126;-81
2023/07/27 02:13:55;;;;;;;6.35;5.35;;;;;;;18.56;55.61;99112.66;5052729;28;20118;-81
2023/07/27 02:16:40;;;;;;;6.03;4.82;;;;;;;18.57;55.78;99107.19;5071220;28;20188;-81
2023/07/27 02:19:10;;;;;;;6.90;5.07;;;;;;;18.59;55.41;99107.88;5072509;28;20048;-81
2023/07/27 02:21:38;;;;;;;5.97;4.68;;;;;;;18.58;55.22;99100.84;5054460;28;20071;-81
2023/07/27 02:24:05;;;;;;;7.35;5.03;;;;;;;18.58;55.21;99100.03;5053287;28;20083;-82
2023/07/27 02:26:32;;;;;;;9.27;5.07;;;;;;;18.56;55.26;99092.19;5054392;28;20452;-80
2023/07/27 02:28:59;;;;;;;8.30;4.95;;;;;;;18.56;55.53;99099.34;5052457;28;20107;-81
2023/07/27 02:31:26;;;;;;;6.95;5.43;;;;;;;18.55;54.96;99097.66;5052240;28;20089;-82
2023/07/27 02:33:52;;;;;;;6.43;4.80;;;;;;;18.54;55.41;99099.47;5034358;28;20045;-81
2023/07/27 02:36:19;;;;;;;8.30;5.53;;;;;;;18.52;55.48;99090.81;5046627;28;20094;-80
2023/07/27 02:38:45;;;;;;;5.88;4.93;;;;;;;18.54;55.33;99096.00;5038145;28;20128;-82
2023/07/27 02:41:12;;;;;;;8.48;5.38;;;;;;;18.53;55.31;99096.97;5052038;28;20060;-81
2023/07/27 02:43:38;;;;;;;6.45;5.28;;;;;;;18.51;55.27;99091.81;5051803;28;20132;-81
2023/07/27 02:46:06;;;;;;;5.20;4.60;;;;;;;18.50;55.64;99095.47;5051754;28;20128;-81
2023/07/27 02:48:33;;;;;;;6.78;5.00;;;;;;;18.47;55.60;99093.13;5061093;28;20080;-81
2023/07/27 02:50:59;;;;;;;6.72;5.30;;;;;;;18.45;55.71;99098.59;5071738;28;20155;-81
2023/07/27 02:53:26;;;;;;;10.60;5.28;;;;;;;18.41;55.57;99096.38;5071468;28;20805;-81
2023/07/27 02:56:00;;;;;;;6.43;5.00;;;;;;;18.35;55.98;99101.34;5071493;28;20117;-81
2023/07/27 02:58:27;;;;;;;10.27;5.53;;;;;;;18.34;55.80;99105.00;5065380;28;20044;-81
2023/07/27 03:00:55;;;;;;;7.55;5.97;;;;;;;18.32;55.67;99111.50;5071374;28;20519;-81
2023/07/27 03:03:22;;;;;;;8.95;5.63;;;;;;;18.28;55.84;99104.78;5071471;28;20056;-81
2023/07/27 03:05:55;;;;;;;8.60;5.63;;;;;;;18.20;56.75;99106.38;5071082;28;20663;-81
2023/07/27 03:08:22;;;;;;;9.68;6.15;;;;;;;18.20;56.34;99101.06;5071648;28;20057;-80
2023/07/27 03:10:48;;;;;;;7.20;5.93;;;;;;;18.17;56.46;99105.88;5053739;28;20048;-81
2023/07/27 03:13:15;;;;;;;12.57;5.63;;;;;;;18.12;56.79;99090.34;5051200;28;20049;-81
2023/07/27 03:15:41;;;;;;;8.15;5.97;;;;;;;18.10;56.96;99108.31;5051059;28;20049;-80
2023/07/27 03:18:08;;;;;;;7.93;5.55;;;;;;;18.05;57.29;99106.06;5051029;28;20057;-81
2023/07/27 03:20:39;;;;;;;7.60;6.05;;;;;;;18.01;57.81;99107.34;5062974;28;20072;-80
2023/07/27 03:23:06;;;;;;;6.82;5.60;;;;;;;18.00;57.54;99097.69;5071205;28;20477;-80
2023/07/27 03:25:34;;;;;;;8.40;5.22;;;;;;;17.98;57.84;99104.97;5071080;28;20048;-81
2023/07/27 03:28:06;;;;;;;11.18;5.72;;;;;;;17.95;58.40;99103.47;5088175;22;20123;-75
2023/07/27 03:30:37;;;;;;;9.13;6.20;;;;;;;17.93;58.76;99102.78;5042616;28;20053;-77
2023/07/27 03:33:04;;;;;;;8.95;5.95;;;;;;;17.93;58.28;99101.94;5057369;28;20394;-76
2023/07/27 03:35:31;;;;;;;9.30;5.85;;;;;;;17.90;58.29;99091.63;5067297;28;20076;-76
2023/07/27 03:37:58;;;;;;;7.03;6.13;;;;;;;17.90;58.34;99100.41;5070783;28;20056;-75
2023/07/27 03:40:24;;;;;;;8.25;6.22;;;;;;;17.90;58.75;99102.28;5065425;28;20051;-76
2023/07/27 03:42:51;;;;;;;9.50;6.13;;;;;;;17.88;58.73;99098.91;5033223;28;20547;-76
2023/07/27 03:45:18;;;;;;;8.02;5.82;;;;;;;17.86;58.84;99096.38;5050689;28;20447;-75
2023/07/27 03:47:45;;;;;;;8.07;5.55;;;;;;;17.83;58.96;99094.88;5050695;28;20068;-77
2023/07/27 03:50:13;;;;;;;9.20;6.03;;;;;;;17.82;58.98;99095.88;5051064;28;20476;-76
2023/07/27 03:52:40;;;;;;;9.27;6.03;;;;;;;17.80;59.30;99089.84;5070890;28;20052;-75
2023/07/27 03:55:07;;;;;;;9.38;5.97;;;;;;;17.80;59.30;99089.84;5070696;28;20094;-76
2023/07/27 03:57:34;;;;;;;10.90;6.80;;;;;;;17.79;59.45;99082.84;5070576;28;20497;-76
2023/07/27 04:00:00;;;;;;;9.75;5.28;;;;;;;17.78;59.65;99078.53;5070860;28;20055;-76
2023/07/27 04:02:28;;;;;;;8.40;6.03;;;;;;;17.77;59.58;99082.19;5055388;28;20103;-75
2023/07/27 04:04:55;;;;;;;8.02;6.13;;;;;;;17.76;59.60;99077.00;5052538;28;20049;-76
2023/07/27 04:07:21;;;;;;;9.27;6.30;;;;;;;17.76;59.62;99069.00;5070750;28;20063;-76
2023/07/27 04:09:48;;;;;;;7.18;5.75;;;;;;;17.76;59.86;99055.72;5070664;28;20056;-75
2023/07/27 04:12:15;;;;;;;10.88;7.50;;;;;;;17.74;59.82;99055.84;5070442;28;20052;-76
2023/07/27 04:14:41;;;;;;;9.38;6.15;;;;;;;17.73;59.71;99046.19;5053124;28;20412;-76
2023/07/27 04:17:09;;;;;;;6.93;5.55;;;;;;;17.74;59.72;99050.53;5050174;28;20052;-76
2023/07/27 04:19:36;;;;;;;8.60;6.15;;;;;;;17.72;60.02;99044.53;5050513;28;20049;-76
2023/07/27 04:22:02;;;;;;;10.70;6.80;;;;;;;17.70;59.75;99042.03;5050709;28;20049;-76
2023/07/27 04:24:29;;;;;;;11.20;6.22;;;;;;;17.70;59.93;99038.50;5061872;28;20509;-75
2023/07/27 04:26:56;;;;;;;7.22;5.70;;;;;;;17.68;60.13;99036.00;5070126;28;20049;-76
2023/07/27 04:29:22;;;;;;;11.35;6.07;;;;;;;17.65;59.95;99041.63;5070489;28;20048;-75
2023/07/27 04:31:49;;;;;;;8.25;5.97;;;;;;;17.63;60.15;99037.44;5070147;28;20193;-75
2023/07/27 04:34:15;;;;;;;9.93;6.78;;;;;;;17.64;60.56;99041.78;5062073;28;20493;-76
2023/07/27 04:36:42;;;;;;;7.72;5.80;;;;;;;17.62;60.48;99033.94;5049982;28;20060;-76
2023/07/27 04:39:09;;;;;;;7.38;5.85;;;;;;;17.62;60.69;99031.28;5050321;28;20055;-76
2023/07/27 04:41:36;;;;;;;12.07;6.22;;;;;;;17.62;60.46;99019.81;5050155;28;20052;-76
2023/07/27 04:44:02;;;;;;;9.85;6.28;;;;;;;17.63;60.62;99027.63;5035244;28;20045;-76
2023/07/27 04:46:29;;;;;;;7.40;5.88;;;;;;;17.64;60.79;99023.16;5071329;28;20078;-76
2023/07/27 04:48:56;;;;;;;9.35;5.60;;;;;;;17.64;60.96;99018.66;5044787;28;20049;-76
2023/07/27 04:51:22;;;;;;;9.05;5.78;;;;;;;17.64;60.92;99017.84;5054116;28;20118;-75
2023/07/27 04:53:49;;;;;;;8.57;5.57;;;;;;;17.65;60.88;99012.34;5054130;28;20061;-76
2023/07/27 04:56:15;;;;;;;8.25;5.82;;;;;;;17.66;61.07;99002.53;5070241;28;20049;-76
2023/07/27 04:58:42;;;;;;;7.45;5.57;;;;;;;17.66;61.18;98995.41;5037299;28;20050;-75
2023/07/27 05:01:09;;;;;;;7.80;5.78;;;;;;;17.68;61.39;98996.06;5053676;28;20136;-76
2023/07/27 05:03:35;;;;;;;7.53;5.65;;;;;;;17.69;61.47;98995.06;5053804;28;20496;-76
2023/07/27 05:06:02;;;;;;;7.75;5.57;;;;;;;17.73;61.36;98986.78;5053477;28;20052;-75
2023/07/27 05:08:29;;;;;;;8.93;5.53;;;;;;;17.75;61.45;98992.81;5035792;28;20084;-75
2023/07/27 05:10:55;;;;;;;8.63;5.30;;;;;;;17.77;61.28;98989.00;5056488;28;20053;-76
2023/07/27 05:13:22;;;;;;;7.38;4.95;;;;;;;17.79;61.08;98984.34;5073677;28;20048;-76
2023/07/27 05:15:49;;;;;;;9.93;5.85;;;;;;;17.82;61.20;98977.88;5073596;28;20080;-76
2023/07/27 05:18:15;;;;;;;6.80;5.55;;;;;;;17.82;61.05;98984.06;5073478;28;20036;-76
2023/07/27 05:20:42;;;;;;;10.30;5.43;;;;;;;17.83;61.13;98977.72;5059794;28;20489;-76
2023/07/27 05:23:09;;;;;;;10.82;5.85;;;;;;;17.84;61.05;98970.59;5035641;28;20045;-77
2023/07/27 05:25:35;;;;;;;8.60;5.70;;;;;;;17.83;61.28;98964.44;5053280;28;20049;-75
2023/07/27 05:28:02;;;;;;;8.00;5.10;;;;;;;17.83;61.40;98964.44;5053128;28;20041;-76
2023/07/27 05:30:29;;;;;;;8.65;5.53;;;;;;;17.85;61.48;98961.63;5069935;28;20693;-76
2023/07/27 05:32:56;;;;;;;8.48;5.40;;;;;;;17.86;61.47;98959.81;5073239;28;20135;-76
2023/07/27 05:35:22;;;;;;;7.75;5.20;;;;;;;17.86;61.43;98952.63;5072942;28;20496;-77
2023/07/27 05:37:49;;;;;;;6.22;4.63;;;;;;;17.89;61.55;98943.50;5073126;28;20045;-76
2023/07/27 05:40:16;;;;;;;8.30;4.95;;;;;;;17.88;61.47;98942.69;5060570;28;20056;-76
2023/07/27 05:42:43;;;;;;;9.57;5.53;;;;;;;17.88;61.48;98944.50;5053355;28;20048;-76
2023/07/27 05:45:10;;;;;;;10.35;5.45;;;;;;;17.87;61.45;98934.84;5053634;28;20128;-77
2023/07/27 05:47:37;;;;;;;8.55;5.00;;;;;;;17.87;61.85;98932.19;5034873;28;20110;-75
2023/07/27 05:50:05;;;;;;;6.78;4.88;;;;;;;17.87;61.92;98926.84;5052756;28;20047;-76
2023/07/27 05:52:32;;;;;;;9.88;5.30;;;;;;;17.88;62.28;98923.19;5035328;28;20447;-77
2023/07/27 05:54:58;;;;;;;6.55;4.63;;;;;;;17.90;62.22;98921.22;5052410;28;20049;-78
2023/07/27 05:57:25;;;;;;;6.75;5.28;;;;;;;17.91;62.15;98917.56;5044297;28;20548;-77
2023/07/27 05:59:52;;;;;;;7.30;5.07;;;;;;;17.92;62.41;98921.91;5048915;28;20132;-77
2023/07/27 06:02:32;;;;;;;6.10;4.63;;;;;;;17.96;62.15;98920.59;5049761;28;20402;-78
2023/07/27 06:04:58;;;;;;;7.30;5.30;;;;;;;17.98;62.25;98918.59;5051820;28;20464;-77
2023/07/27 06:07:26;;;;;;;7.32;5.22;;;;;;;17.98;62.17;98919.44;5052194;28;20135;-78
2023/07/27 06:09:53;;;;;;;8.98;5.43;;;;;;;18.01;62.45;98918.28;5056285;28;20053;-77
2023/07/27 06:12:19;;;;;;;8.13;5.70;;;;;;;18.01;62.32;98904.97;5069431;28;20123;-78
2023/07/27 06:14:46;;;;;;;7.07;4.72;;;;;;;18.02;62.64;98909.31;5071261;28;20424;-77
2023/07/27 06:17:13;;;;;;;7.38;5.03;;;;;;;18.03;62.37;98907.47;5072152;28;20493;-79
2023/07/27 06:19:39;;;;;;;7.95;5.05;;;;;;;18.04;62.64;98906.47;5072461;28;20049;-78
2023/07/27 06:22:06;;;;;;;7.60;5.05;;;;;;;18.06;62.92;98901.84;5072340;28;20091;-77
2023/07/27 06:24:33;;;;;;;6.00;4.25;;;;;;;18.07;62.86;98904.38;5056294;28;20098;-79
2023/07/27 06:26:59;;;;;;;6.68;4.50;;;;;;;18.07;62.57;98901.69;5069965;28;20063;-77
2023/07/27 06:29:26;;;;;;;6.15;4.00;;;;;;;18.06;62.56;98884.03;5072656;28;20072;-77
2023/07/27 06:31:52;;;;;;;5.82;3.90;;;;;;;18.07;62.84;98884.88;5072245;28;20052;-78
2023/07/27 06:34:19;;;;;;;4.95;3.70;;;;;;;18.06;62.89;98883.22;5061160;28;20067;-77
2023/07/27 06:36:46;;;;;;;5.35;4.03;;;;;;;18.07;63.08;98874.22;5052110;28;20477;-77
2023/07/27 06:39:12;;;;;;;5.15;3.63;;;;;;;18.07;62.84;98869.75;5068866;28;20040;-78
2023/07/27 06:41:39;;;;;;;5.18;3.70;;;;;;;18.07;62.60;98868.91;5052399;28;20056;-77
2023/07/27 06:44:06;;;;;;;6.32;3.85;;;;;;;18.05;62.94;98866.38;5030810;28;20128;-77
2023/07/27 06:46:33;;;;;;;4.38;3.50;;;;;;;18.06;63.00;98865.38;5032105;28;20077;-78
2023/07/27 06:49:00;;;;;;;7.32;3.88;;;;;;;18.05;62.93;98862.91;5031953;28;20065;-77
2023/07/27 06:51:35;;;;;;;4.70;3.90;;;;;;;18.04;63.06;98859.41;5058474;28;20052;-77
2023/07/27 06:54:01;;;;;;;7.38;3.55;;;;;;;18.04;63.28;98869.19;5071840;28;20076;-77
2023/07/27 06:56:28;;;;;;;5.00;3.25;;;;;;;18.03;63.12;98868.38;5071641;28;20131;-78
2023/07/27 06:58:54;;;;;;;6.13;3.75;;;;;;;18.03;63.14;98878.19;5071574;28;20062;-80
2023/07/27 07:01:21;;;;;;;6.43;3.67;;;;;;;18.02;63.33;98882.66;5062219;28;20052;-78
2023/07/27 07:03:48;;;;;;;6.07;3.67;;;;;;;18.01;63.34;98886.34;5051445;28;20489;-77
2023/07/27 07:06:14;;;;;;;6.55;3.42;;;;;;;18.00;63.31;98874.03;5060361;28;20056;-77
2023/07/27 07:08:41;;;;;;;3.80;3.20;;;;;;;17.99;63.52;98867.03;5070081;28;20052;-78
2023/07/27 07:11:08;;;;;;;5.28;3.40;;;;;;;17.97;63.42;98874.31;5071314;28;20113;-77
2023/07/27 07:13:35;;;;;;;4.95;3.38;;;;;;;17.96;63.45;98851.38;5071444;28;20079;-77
2023/07/27 07:16:01;;;;;;;5.53;3.17;;;;;;;17.97;63.73;98858.34;5071093;28;20401;-78
2023/07/27 07:18:28;;;;;;;7.05;3.35;;;;;;;17.98;63.82;98854.69;5070986;28;20049;-77
2023/07/27 07:20:56;;;;;;;6.15;3.25;;;;;;;17.99;63.88;98843.06;5069215;28;20489;-77
2023/07/27 07:23:23;;;;;;;4.20;3.08;;;;;;;18.02;64.06;98847.25;5063746;28;20041;-77
2023/07/27 07:25:49;;;;;;;6.43;3.67;;;;;;;18.03;63.95;98836.44;5059964;28;20131;-77
2023/07/27 07:30:50;;;;;;;4.93;2.80;;;;;;;18.06;63.77;98828.09;5071122;28;20613;-77
2023/07/27 07:33:17;;;;;;;3.95;2.92;;;;;;;18.06;64.16;98830.78;5052997;28;20053;-78
2023/07/27 07:35:44;;;;;;;5.45;2.83;;;;;;;18.07;63.83;98828.94;5050800;28;20048;-77
2023/07/27 07:38:10;;;;;;;3.30;2.75;;;;;;;18.06;63.94;98828.09;5050995;28;20421;-77
2023/07/27 07:40:37;;;;;;;6.57;3.03;;;;;;;18.07;64.17;98821.81;5050811;28;20094;-78
2023/07/27 07:43:03;;;;;;;4.15;2.95;;;;;;;18.08;64.28;98823.50;5064183;28;20044;-77
2023/07/27 07:45:33;;;;;;;4.10;2.58;;;;;;;18.07;64.86;98813.81;5070591;28;20092;-77
2023/07/27 07:48:00;;;;;;;4.43;2.83;;;;;;;18.10;64.56;98810.03;5070917;28;20443;-78
2023/07/27 07:50:26;;;;;;;3.28;2.38;;;;;;;18.09;64.33;98801.19;5052944;28;20067;-77
2023/07/27 07:52:53;;;;;;;3.03;2.47;;;;;;;18.11;64.64;98803.72;5044005;28;20063;-78
2023/07/27 07:55:21;;;;;;;4.13;2.72;;;;;;;18.12;64.30;98793.91;5063067;28;20059;-78
2023/07/27 07:57:48;;;;;;;2.70;2.17;;;;;;;18.12;64.23;98788.56;5054215;28;20466;-78
2023/07/27 08:00:15;;;;;;;4.07;2.60;;;;;;;18.14;64.80;98781.25;5050740;28;20111;-78
2023/07/27 08:02:42;;;;;;;4.43;2.70;;;;;;;18.15;64.84;98782.91;5054909;28;20456;-78
2023/07/27 08:05:09;;;;;;;3.72;2.53;;;;;;;18.16;64.77;98768.63;5070184;28;20489;-78
2023/07/27 08:07:35;;;;;;;5.00;2.33;;;;;;;18.17;64.54;98773.75;5070426;28;20159;-77
2023/07/27 08:10:03;;;;;;;2.95;2.45;;;;;;;18.18;64.33;98767.44;5036459;28;20044;-77
2023/07/27 08:12:30;;;;;;;3.65;2.50;;;;;;;18.19;64.64;98761.13;5070341;28;20048;-77
2023/07/27 08:14:56;;;;;;;2.88;2.05;;;;;;;18.21;64.82;98756.47;5050469;28;20060;-77
2023/07/27 08:17:23;;;;;;;2.10;1.90;;;;;;;18.23;64.98;98753.63;5050500;28;20046;-78
2023/07/27 08:19:50;;;;;;;3.08;2.08;;;;;;;18.26;65.22;98745.31;5050314;28;20060;-77
2023/07/27 08:22:16;;;;;;;2.83;2.08;;;;;;;18.28;65.05;98745.16;5053596;28;20049;-77
2023/07/27 08:24:43;;;;;;;2.10;1.83;;;;;;;18.29;64.63;98742.34;5069679;28;20060;-77
2023/07/27 08:27:10;;;;;;;4.07;2.30;;;;;;;18.29;64.77;98741.50;5074417;28;20045;-77
2023/07/27 08:29:38;;;;;;;2.20;2.00;;;;;;;18.27;64.47;98738.19;5074278;28;20044;-78
2023/07/27 08:32:05;;;;;;;2.25;1.73;;;;;;;18.25;64.41;98737.50;5074388;28;20055;-77
2023/07/27 08:34:31;;;;;;;2.95;1.50;;;;;;;18.23;64.71;98724.34;5063112;28;20057;-78
2023/07/27 08:36:58;;;;;;;2.95;1.90;;;;;;;18.21;65.06;98726.34;5059253;28;20051;-77
2023/07/27 08:39:25;;;;;;;1.58;1.48;;;;;;;18.22;65.13;98733.34;5074417;28;20095;-77
2023/07/27 08:41:52;;;;;;;1.75;1.58;;;;;;;18.19;64.91;98730.97;5073867;28;20484;-77
2023/07/27 08:44:19;;;;;;;2.58;1.67;;;;;;;18.18;65.35;98724.00;5048838;28;20102;-78
2023/07/27 08:46:46;;;;;;;1.52;1.42;;;;;;;18.18;65.24;98731.97;5034995;28;20141;-79
2023/07/27 08:49:14;;;;;;;2.38;1.80;;;;;;;18.16;65.45;98726.81;5053291;28;20049;-78
2023/07/27 08:51:44;;;;;;;2.35;1.70;;;;;;;18.14;65.88;98723.50;5035415;28;20076;-78
2023/07/27 08:54:11;;;;;;;2.45;1.70;;;;;;;18.15;65.47;98721.66;5049645;28;20103;-78
2023/07/27 08:56:37;;;;;;;2.00;1.60;;;;;;;18.15;65.39;98711.00;5035116;28;20095;-78
2023/07/27 08:59:04;;;;;;;2.17;1.55;;;;;;;18.15;65.81;98703.00;5058878;28;20451;-78
2023/07/27 09:01:31;;;;;;;1.83;1.65;;;;;;;18.15;65.64;98711.00;5054853;28;20060;-80
2023/07/27 09:03:58;;;;;;;1.92;1.52;;;;;;;18.18;65.86;98716.84;5073131;28;20467;-78
2023/07/27 09:06:38;;;;;;;2.58;1.67;;;;;;;18.14;66.76;98712.84;5072615;28;20041;-78
2023/07/27 09:09:28;;;;;;;2.28;1.70;;;;;;;18.18;66.59;98710.69;5051970;28;20071;-78
2023/07/27 09:11:55;;;;;;;1.88;1.63;;;;;;;18.22;66.05;98707.53;5034413;28;20060;-79
2023/07/27 09:14:22;;;;;;;2.17;1.83;;;;;;;18.25;66.12;98697.53;5052749;28;20057;-78
2023/07/27 09:16:49;;;;;;;1.90;1.70;;;;;;;18.27;66.54;98707.03;5052536;28;20144;-78
2023/07/27 09:19:20;;;;;;;2.63;1.92;;;;;;;18.31;66.37;98699.53;5037032;28;20053;-78
2023/07/27 09:21:52;;;;;;;1.83;1.60;;;;;;;18.34;66.66;98696.56;5067710;28;20045;-78
2023/07/27 09:24:22;;;;;;;2.17;1.60;;;;;;;18.38;67.15;98705.06;5072273;28;20439;-78
2023/07/27 09:26:50;;;;;;;1.65;1.55;;;;;;;18.42;66.46;98701.06;5072190;28;20076;-79
2023/07/27 09:29:19;;;;;;;2.70;1.77;;;;;;;18.46;66.73;98695.25;5054615;28;20448;-78
2023/07/27 09:31:47;;;;;;;2.80;1.60;;;;;;;18.49;66.40;98691.41;5071534;28;20139;-79
2023/07/27 09:34:15;;;;;;;2.38;1.80;;;;;;;18.52;66.64;98683.09;5072470;28;20079;-78
2023/07/27 09:36:41;;;;;;;2.78;1.60;;;;;;;18.56;66.37;98686.25;5071857;28;20087;-78
2023/07/27 09:39:08;;;;;;;1.70;1.40;;;;;;;18.59;66.78;98685.94;5072124;28;20052;-78
2023/07/27 09:41:42;;;;;;;4.70;1.50;;;;;;;18.63;66.93;98684.59;5056803;28;20087;-78
2023/07/27 09:44:12;;;;;;;1.65;1.50;;;;;;;18.62;67.00;98686.41;5052059;28;20858;-78
2023/07/27 09:46:40;;;;;;;1.70;1.40;;;;;;;18.67;66.65;98688.59;5033895;28;20055;-78
2023/07/27 09:49:08;;;;;;;2.15;1.55;;;;;;;18.69;66.63;98667.91;5051933;28;20045;-78
2023/07/27 09:51:36;;;;;;;1.30;1.20;;;;;;;18.70;66.79;98668.78;5064221;28;20052;-78
2023/07/27 09:54:05;;;;;;;1.70;1.40;;;;;;;18.72;67.11;98680.09;5072062;28;20138;-78
2023/07/27 09:56:33;;;;;;;1.45;1.35;;;;;;;18.73;67.11;98673.78;5054056;28;20049;-79
2023/07/27 09:59:00;;;;;;;1.25;1.15;;;;;;;18.76;66.78;98673.41;5071967;28;20086;-80
2023/07/27 10:01:27;;;;;;;1.27;1.17;;;;;;;18.79;67.18;98674.91;5063182;28;20064;-78
2023/07/27 10:04:00;;;;;;;1.60;1.10;;;;;;;18.81;67.12;98678.25;5051618;28;20053;-79
2023/07/27 10:06:28;;;;;;;1.48;1.38;;;;;;;18.84;66.85;98681.41;5051408;28;20093;-78
2023/07/27 10:08:55;;;;;;;1.38;1.15;;;;;;;18.87;67.03;98677.56;5051691;28;20057;-78
2023/07/27 10:11:54;;;;;;;0.80;0.80;;;;;;;18.85;68.20;98668.94;5055989;28;20515;-78
2023/07/27 10:14:24;;;;;;;1.40;1.23;;;;;;;18.92;67.74;98669.94;5071612;28;20052;-79
2023/07/27 10:17:04;;;;;;;1.70;1.27;;;;;;;18.95;68.80;98671.41;5071305;28;20056;-78
2023/07/27 10:19:43;;;;;;;1.73;1.63;;;;;;;19.00;68.71;98679.75;5071670;28;20501;-80
2023/07/27 10:22:15;;;;;;;1.50;1.40;;;;;;;19.07;68.30;98670.09;5062953;28;20052;-78
2023/07/27 10:24:56;;;;;;;1.50;1.40;;;;;;;19.14;68.47;98663.06;5051229;28;20413;-78
2023/07/27 10:27:23;;;;;;;1.48;1.38;;;;;;;19.24;68.29;98664.72;5050912;28;20524;-78
2023/07/27 10:30:10;;;;;;;2.25;1.70;;;;;;;19.27;69.08;98662.56;5051368;28;20057;-78
2023/07/27 10:32:37;;;;;;;1.77;1.67;;;;;;;19.38;68.16;98658.69;5059863;28;20052;-78
2023/07/27 10:35:08;;;;;;;2.42;1.88;;;;;;;19.46;68.53;98668.47;5070914;28;20044;-78
2023/07/27 10:37:52;;;;;;;1.70;1.60;;;;;;;19.50;69.14;98652.94;5071338;28;20071;-78
2023/07/27 10:40:26;;;;;;;1.60;1.50;;;;;;;19.59;68.80;98656.44;5071470;28;20067;-78
2023/07/27 10:42:57;;;;;;;1.60;1.50;;;;;;;19.64;68.64;98657.56;5063916;28;20052;-78
2023/07/27 10:45:25;;;;;;;2.67;1.58;;;;;;;19.71;67.88;98654.19;5044779;28;20125;-79
2023/07/27 10:47:56;;;;;;;1.40;1.30;;;;;;;19.75;68.43;98652.84;5056079;28;20143;-78
2023/07/27 10:50:23;;;;;;;1.50;1.40;;;;;;;19.81;67.86;98654.00;5052004;28;20051;-79
2023/07/27 10:52:54;;;;;;;1.33;1.23;;;;;;;19.84;68.33;98646.44;5038124;28;20086;-78
2023/07/27 10:55:21;;;;;;;1.00;1.00;;;;;;;19.88;67.85;98650.44;5054008;28;20051;-78
2023/07/27 10:57:48;;;;;;;1.15;1.10;;;;;;;19.88;67.76;98645.09;5071429;28;20051;-80
2023/07/27 11:00:15;;;;;;;0.98;0.98;;;;;;;19.90;67.61;98650.25;5071345;28;20109;-79
2023/07/27 11:02:44;;;;;;;1.23;1.13;;;;;;;19.91;67.62;98649.25;5071073;28;20075;-78
2023/07/27 11:05:12;;;;;;;2.28;1.30;;;;;;;19.91;67.63;98652.75;5070447;28;20045;-78
2023/07/27 11:07:42;;;;;;;1.40;1.30;;;;;;;19.91;67.83;98644.75;5071470;28;20048;-78
2023/07/27 11:10:11;;;;;;;1.20;1.10;;;;;;;19.92;67.92;98640.22;5053611;28;20106;-80
2023/07/27 11:12:47;;;;;;;1.23;1.10;;;;;;;19.90;68.89;98640.44;5071291;28;20053;-78
2023/07/27 11:15:18;;;;;;;1.55;1.15;;;;;;;19.92;68.73;98643.75;5053481;28;20079;-78
2023/07/27 11:17:45;;;;;;;1.70;1.08;;;;;;;19.96;68.33;98638.06;5051263;28;20049;-78
2023/07/27 11:20:12;;;;;;;1.35;1.20;;;;;;;19.99;68.57;98637.72;5051397;28;20236;-79
2023/07/27 11:22:39;;;;;;;2.63;1.13;;;;;;;20.01;68.56;98636.56;5052905;28;20052;-79
2023/07/27 11:25:06;;;;;;;1.88;1.23;;;;;;;20.03;68.44;98633.69;5070676;28;20566;-78
2023/07/27 11:27:33;;;;;;;1.10;1.00;;;;;;;20.05;68.44;98634.34;5070701;28;20048;-77
2023/07/27 11:30:00;;;;;;;1.48;1.10;;;;;;;20.04;68.40;98630.84;5071092;28;20063;-78
2023/07/27 11:32:27;;;;;;;1.35;1.17;;;;;;;20.07;68.34;98626.97;5071349;28;20076;-78
2023/07/27 11:34:55;;;;;;;1.42;1.10;;;;;;;20.09;68.62;98632.16;5052729;28;20083;-78
2023/07/27 11:37:26;;;;;;;1.40;1.30;;;;;;;20.10;69.40;98626.63;5050758;28;20460;-77
2023/07/27 11:39:53;;;;;;;2.78;1.10;;;;;;;20.14;68.88;98622.59;5051347;28;20140;-78
2023/07/27 11:42:28;;;;;;;1.27;1.17;;;;;;;20.14;69.71;98614.59;5051060;28;20085;-78